KAHN/AHN METAR and TAF weather

Enter ICAO airport designator
Station Type Date Time Source
KAHN METAR 2019/06/26 09:51 UTC NOAA

KAHN 260951Z AUTO 26005KT 10SM CLR 20/18 A3014 RMK AO2 SLP201 T02000183 $


Station Type Date Time Source
KAHN Decoded METAR 2019/06/26 09:51 UTC NOAA

ATHENS BEN EPPS AIRPORT, GA, United States (KAHN) 33-57N 083-20W 244M
Jun 26, 2019 - 05:51 AM EDT / 2019.06.26 0951 UTC
Wind: from the W (260 degrees) at 6 MPH (5 KT):0
Visibility: 10 mile(s):0
Sky conditions: clear
Temperature: 68.0 F (20.0 C)
Dew Point: 64.9 F (18.3 C)
Relative Humidity: 89%
Pressure (altimeter): 30.14 in. Hg (1020 hPa)
ob: KAHN 260951Z AUTO 26005KT 10SM CLR 20/18 A3014 RMK AO2 SLP201 T02000183
cycle: 10

Station Type Date Time Source
KAHN TAF 2019/06/26 06:24 UTC NOAA

TAF KAHN 260521Z 2606/2706 31003KT P6SM SCT120 BKN250
FM261400 02005KT P6SM FEW035 BKN250
FM261700 04007KT P6SM SCT050 BKN250
FM270100 03003KT P6SM SCT100

Example: see airport list